Time;durP1;ratioP1;P1;durP2;ratioP2;P2;SDS_P1;SDS_P2;PMS_P1;PMS_P2;Temp;Humidity;BMP_temperature;BMP_pressure;BME280_temperature;BME280_humidity;BME280_pressure;Samples;Min_cycle;Max_cycle;Signal;HPM_P1;HPM_P2
2024/02/02 00:00:55;;;;;;;13.23;1.83;;;;;;;-141.50;100.00;63355.56;5077699;28;20045;-78
2024/02/02 00:03:22;;;;;;;14.90;2.10;;;;;;;-141.50;100.00;63355.56;5108951;28;20063;-78
2024/02/02 00:05:49;;;;;;;12.02;2.35;;;;;;;-141.50;100.00;63355.56;5087657;28;20140;-79
2024/02/02 00:08:16;;;;;;;10.75;2.55;;;;;;;-141.50;100.00;63355.56;5089590;28;20574;-78
2024/02/02 00:10:42;;;;;;;15.88;1.65;;;;;;;-141.50;100.00;63355.56;5088824;28;20039;-78
2024/02/02 00:13:09;;;;;;;9.57;1.70;;;;;;;-141.50;100.00;63355.56;5089271;28;20361;-78
2024/02/02 00:15:36;;;;;;;11.02;2.08;;;;;;;-141.50;100.00;63355.56;5091209;28;20040;-78
2024/02/02 00:18:03;;;;;;;17.15;2.10;;;;;;;-141.50;100.00;63355.56;5089694;28;20139;-78
2024/02/02 00:20:30;;;;;;;21.30;3.28;;;;;;;-141.50;100.00;63355.56;5090550;28;20039;-78
2024/02/02 00:22:58;;;;;;;18.20;2.10;;;;;;;-141.50;100.00;63355.56;5092753;28;20052;-79
2024/02/02 00:25:26;;;;;;;19.92;1.98;;;;;;;-141.50;100.00;63355.56;5100354;28;20055;-77
2024/02/02 00:27:52;;;;;;;14.13;1.90;;;;;;;-141.50;100.00;63355.56;5108881;28;20047;-78
2024/02/02 00:30:19;;;;;;;11.75;2.00;;;;;;;-141.50;100.00;63355.56;5090808;28;20058;-78
2024/02/02 00:32:46;;;;;;;20.55;2.08;;;;;;;-141.50;100.00;63355.56;5107951;28;20488;-79
2024/02/02 00:35:13;;;;;;;14.52;2.13;;;;;;;-141.50;100.00;63355.56;5101502;28;20096;-78
2024/02/02 00:37:40;;;;;;;17.73;1.83;;;;;;;-141.50;100.00;63355.56;5107496;28;20055;-78
2024/02/02 00:40:08;;;;;;;12.15;1.95;;;;;;;-141.50;100.00;63355.56;5085317;28;20067;-77
2024/02/02 00:42:36;;;;;;;8.50;1.92;;;;;;;-141.50;100.00;63355.56;5075362;28;20049;-78
2024/02/02 00:45:04;;;;;;;15.60;1.75;;;;;;;-141.50;100.00;63355.56;5093907;28;20097;-76
2024/02/02 00:47:30;;;;;;;12.25;1.80;;;;;;;-141.50;100.00;63355.56;5092435;28;20089;-77
2024/02/02 00:49:58;;;;;;;12.35;1.92;;;;;;;-141.50;100.00;63355.56;5080757;28;20040;-78
2024/02/02 00:52:26;;;;;;;14.07;1.80;;;;;;;-141.50;100.00;63355.56;5097651;28;20071;-77
2024/02/02 00:54:53;;;;;;;14.93;2.05;;;;;;;-141.50;100.00;63355.56;5106818;28;20044;-78
2024/02/02 00:57:20;;;;;;;14.02;1.90;;;;;;;-141.50;100.00;63355.56;5107306;28;20444;-78
2024/02/02 00:59:48;;;;;;;17.25;1.80;;;;;;;-141.50;100.00;63355.56;5107943;28;20040;-80
2024/02/02 01:02:15;;;;;;;14.88;1.73;;;;;;;-141.50;100.00;63355.56;5082242;28;20055;-78
2024/02/02 01:04:42;;;;;;;23.45;2.25;;;;;;;-141.50;100.00;63355.56;5106611;28;20466;-78
2024/02/02 01:07:09;;;;;;;15.32;1.75;;;;;;;-141.50;100.00;63355.56;5087150;28;20049;-77
2024/02/02 01:09:37;;;;;;;19.92;2.28;;;;;;;-141.50;100.00;63355.56;5080759;28;20864;-78
2024/02/02 01:12:04;;;;;;;10.85;1.83;;;;;;;-141.50;100.00;63355.56;5085612;28;20036;-78
2024/02/02 01:14:33;;;;;;;13.88;1.70;;;;;;;-141.50;100.00;63355.56;5084813;28;20040;-78
2024/02/02 01:17:00;;;;;;;12.65;1.95;;;;;;;-141.50;100.00;63355.56;5077358;28;20631;-78
2024/02/02 01:19:26;;;;;;;22.23;2.65;;;;;;;-141.50;100.00;63355.56;5078980;28;20050;-77
2024/02/02 01:21:54;;;;;;;10.13;2.03;;;;;;;-141.50;100.00;63355.56;5080366;28;20085;-78
2024/02/02 01:24:21;;;;;;;15.85;2.05;;;;;;;-141.50;100.00;63355.56;5114753;28;20047;-77
2024/02/02 01:26:48;;;;;;;12.32;2.08;;;;;;;-141.50;100.00;63355.56;5090677;28;20093;-78
2024/02/02 01:29:15;;;;;;;14.15;2.00;;;;;;;-141.50;100.00;63355.56;5106885;28;20108;-78
2024/02/02 01:31:42;;;;;;;21.98;2.88;;;;;;;-141.50;100.00;63355.56;5108100;28;20060;-78
2024/02/02 01:34:09;;;;;;;14.18;1.85;;;;;;;-141.50;100.00;63355.56;5085865;28;20044;-77
2024/02/02 01:36:36;;;;;;;12.00;1.90;;;;;;;-141.50;100.00;63355.56;5108600;28;20044;-79
2024/02/02 01:39:04;;;;;;;10.77;1.80;;;;;;;-141.50;100.00;63355.56;5089722;28;20071;-78
2024/02/02 01:41:31;;;;;;;25.20;2.65;;;;;;;-141.50;100.00;63355.56;5089994;28;20108;-78
2024/02/02 01:43:57;;;;;;;17.73;2.30;;;;;;;-141.50;100.00;63355.56;5084278;28;20092;-77
2024/02/02 01:46:24;;;;;;;15.80;2.15;;;;;;;-141.50;100.00;63355.56;5103633;28;20055;-77
2024/02/02 01:48:51;;;;;;;18.05;2.30;;;;;;;-141.50;100.00;63355.56;5105617;28;20054;-76
2024/02/02 01:51:18;;;;;;;18.90;2.20;;;;;;;-141.50;100.00;63355.56;5067398;28;20055;-79
2024/02/02 01:53:45;;;;;;;11.30;2.08;;;;;;;-141.50;100.00;63355.56;5084650;28;20096;-76
2024/02/02 01:56:12;;;;;;;25.73;2.47;;;;;;;-141.50;100.00;63355.56;5092808;28;20704;-77
2024/02/02 01:58:38;;;;;;;19.65;2.65;;;;;;;-141.50;100.00;63355.56;5103697;28;20048;-78
2024/02/02 02:01:05;;;;;;;7.93;2.03;;;;;;;-141.50;100.00;63355.56;5107496;28;20048;-76
2024/02/02 02:03:32;;;;;;;14.10;2.28;;;;;;;-141.50;100.00;63355.56;5088067;28;20031;-76
2024/02/02 02:06:00;;;;;;;20.67;3.00;;;;;;;-141.50;100.00;63355.56;5089263;28;20502;-77
2024/02/02 02:08:27;;;;;;;21.48;2.70;;;;;;;-141.50;100.00;63355.56;5110602;28;20241;-77
2024/02/02 02:10:54;;;;;;;15.80;2.47;;;;;;;-141.50;100.00;63355.56;5100506;28;20131;-78
2024/02/02 02:13:22;;;;;;;12.93;2.55;;;;;;;-141.50;100.00;63355.56;5111505;28;20075;-77
2024/02/02 02:15:49;;;;;;;11.10;2.17;;;;;;;-141.50;100.00;63355.56;5110214;28;20051;-78
2024/02/02 02:18:15;;;;;;;16.95;2.92;;;;;;;-141.50;100.00;63355.56;5110119;28;20082;-77
2024/02/02 02:20:43;;;;;;;17.13;3.08;;;;;;;-141.50;100.00;63355.56;5098394;28;20027;-76
2024/02/02 02:23:10;;;;;;;24.05;3.20;;;;;;;-141.50;100.00;63355.56;5090808;28;20043;-78
2024/02/02 02:25:37;;;;;;;16.92;2.95;;;;;;;-141.50;100.00;63355.56;5091589;28;20151;-78
2024/02/02 02:28:04;;;;;;;25.73;3.33;;;;;;;-141.50;100.00;63355.56;5106369;28;20044;-78
2024/02/02 02:30:33;;;;;;;16.40;3.17;;;;;;;-141.50;100.00;63355.56;5110153;28;20509;-78
2024/02/02 02:33:00;;;;;;;11.02;2.78;;;;;;;-141.50;100.00;63355.56;5088005;28;20130;-77
2024/02/02 02:35:27;;;;;;;17.55;3.22;;;;;;;-141.50;100.00;63355.56;5090463;28;20043;-77
2024/02/02 02:37:54;;;;;;;17.30;2.67;;;;;;;-141.50;100.00;63355.56;5110140;28;20434;-76
2024/02/02 02:40:21;;;;;;;22.90;3.55;;;;;;;-141.50;100.00;63355.56;5103761;28;21312;-78
2024/02/02 02:42:50;;;;;;;17.55;3.58;;;;;;;-141.50;100.00;63355.56;5110067;28;20040;-78
2024/02/02 02:45:17;;;;;;;12.80;2.95;;;;;;;-141.50;100.00;63355.56;5077419;28;20052;-78
2024/02/02 02:47:44;;;;;;;20.77;3.78;;;;;;;-141.50;100.00;63355.56;5080004;28;20508;-77
2024/02/02 02:50:11;;;;;;;17.73;3.00;;;;;;;-141.50;100.00;63355.56;5091204;28;20393;-78
2024/02/02 02:52:38;;;;;;;21.60;3.97;;;;;;;-141.50;100.00;63355.56;5109364;28;20048;-78
2024/02/02 02:55:05;;;;;;;18.10;3.30;;;;;;;-141.50;100.00;63355.56;5092173;28;20046;-79
2024/02/02 02:57:32;;;;;;;16.20;3.65;;;;;;;-141.50;100.00;63355.56;5088560;28;20048;-75
2024/02/02 02:59:59;;;;;;;16.50;3.97;;;;;;;-141.50;100.00;63355.56;5079271;28;20097;-75
2024/02/02 03:02:27;;;;;;;16.02;3.58;;;;;;;-141.50;100.00;63355.56;5071071;28;20414;-78
2024/02/02 03:04:54;;;;;;;11.32;2.92;;;;;;;-141.50;100.00;63355.56;5070082;28;20053;-78
2024/02/02 03:07:24;;;;;;;21.13;3.67;;;;;;;-141.50;100.00;63355.56;5103151;28;20055;-78
2024/02/02 03:09:50;;;;;;;16.27;3.90;;;;;;;-141.50;100.00;63355.56;5086941;28;20128;-77
2024/02/02 03:12:17;;;;;;;14.43;3.95;;;;;;;-141.50;100.00;63355.56;5089386;28;20056;-80
2024/02/02 03:14:44;;;;;;;22.02;3.90;;;;;;;-141.50;100.00;63355.56;5092187;28;20040;-77
2024/02/02 03:17:11;;;;;;;20.92;3.88;;;;;;;-141.50;100.00;63355.56;5096851;28;20035;-75
2024/02/02 03:19:38;;;;;;;19.95;3.60;;;;;;;-141.50;100.00;63355.56;5097380;28;20474;-78
2024/02/02 03:22:07;;;;;;;19.23;4.15;;;;;;;-141.50;100.00;63355.56;5102185;28;20045;-76
2024/02/02 03:24:34;;;;;;;16.90;3.70;;;;;;;-141.50;100.00;63355.56;5110907;28;20050;-80
2024/02/02 03:27:01;;;;;;;14.00;4.10;;;;;;;-141.50;100.00;63355.56;5090476;28;20073;-78
2024/02/02 03:29:28;;;;;;;13.52;4.07;;;;;;;-141.50;100.00;63355.56;5093331;28;20781;-79
2024/02/02 03:31:55;;;;;;;16.15;3.90;;;;;;;-141.50;100.00;63355.56;5111408;28;20057;-78
2024/02/02 03:34:22;;;;;;;14.73;3.38;;;;;;;-141.50;100.00;63355.56;5110122;28;20051;-79
2024/02/02 03:36:49;;;;;;;19.92;4.25;;;;;;;-141.50;100.00;63355.56;5112428;28;20513;-78
2024/02/02 03:39:15;;;;;;;20.20;4.28;;;;;;;-141.50;100.00;63355.56;5109341;28;20043;-79
2024/02/02 03:41:42;;;;;;;23.40;3.90;;;;;;;-141.50;100.00;63355.56;5090406;28;20048;-79
2024/02/02 03:44:09;;;;;;;19.95;5.15;;;;;;;-141.50;100.00;63355.56;5108700;28;20504;-77
2024/02/02 03:46:36;;;;;;;17.88;3.58;;;;;;;-141.50;100.00;63355.56;5088913;28;20074;-78
2024/02/02 03:49:03;;;;;;;18.52;4.18;;;;;;;-141.50;100.00;63355.56;5089898;28;20048;-78
2024/02/02 03:51:29;;;;;;;17.48;3.85;;;;;;;-141.50;100.00;63355.56;5108565;27;20050;-78
2024/02/02 03:53:56;;;;;;;21.25;3.78;;;;;;;-141.50;100.00;63355.56;5088642;28;20505;-79
2024/02/02 03:56:26;;;;;;;17.92;4.00;;;;;;;-141.50;100.00;63355.56;5108970;28;20058;-77
2024/02/02 03:58:53;;;;;;;16.92;3.88;;;;;;;-141.50;100.00;63355.56;5112262;28;20681;-77
2024/02/02 04:01:22;;;;;;;14.05;3.92;;;;;;;-141.50;100.00;63355.56;5109215;28;20051;-77
2024/02/02 04:03:49;;;;;;;17.33;4.28;;;;;;;-141.50;100.00;63355.56;5091113;28;20101;-78
2024/02/02 04:06:16;;;;;;;12.98;3.35;;;;;;;-141.50;100.00;63355.56;5083510;28;20048;-78
2024/02/02 04:08:42;;;;;;;18.65;3.75;;;;;;;-141.50;100.00;63355.56;5089147;28;20439;-78
2024/02/02 04:11:10;;;;;;;17.02;3.70;;;;;;;-141.50;100.00;63355.56;5107760;28;20082;-78
2024/02/02 04:13:36;;;;;;;18.98;4.18;;;;;;;-141.50;100.00;63355.56;5074768;28;20043;-78
2024/02/02 04:16:04;;;;;;;20.35;4.30;;;;;;;-141.50;100.00;63355.56;5119427;28;20040;-77
2024/02/02 04:18:31;;;;;;;15.75;4.20;;;;;;;-141.50;100.00;63355.56;5088264;28;20052;-79
2024/02/02 04:20:58;;;;;;;14.38;4.32;;;;;;;-141.50;100.00;63355.56;5093116;28;20050;-78
2024/02/02 04:23:25;;;;;;;15.32;3.60;;;;;;;-141.50;100.00;63355.56;5085278;28;20039;-77
2024/02/02 04:25:52;;;;;;;16.10;4.05;;;;;;;-141.50;100.00;63355.56;5109090;28;20056;-79
2024/02/02 04:28:19;;;;;;;14.32;3.80;;;;;;;-141.50;100.00;63355.56;5090381;28;20079;-79
2024/02/02 04:30:45;;;;;;;22.45;4.90;;;;;;;-141.50;100.00;63355.56;5107660;28;20055;-78
2024/02/02 04:33:13;;;;;;;18.45;3.90;;;;;;;-141.50;100.00;63355.56;5090018;28;20051;-78
2024/02/02 04:35:40;;;;;;;25.52;4.70;;;;;;;-141.50;100.00;63355.56;5107281;28;20052;-79
2024/02/02 04:38:06;;;;;;;18.98;4.53;;;;;;;-141.50;100.00;63355.56;5107308;28;20059;-78
2024/02/02 04:40:36;;;;;;;17.10;4.40;;;;;;;-141.50;100.00;63355.56;5108163;28;20514;-79
2024/02/02 04:43:03;;;;;;;16.83;4.13;;;;;;;-141.50;100.00;63355.56;5089926;28;20130;-78
2024/02/02 04:45:30;;;;;;;18.52;4.43;;;;;;;-141.50;100.00;63355.56;5108602;28;20035;-78
2024/02/02 04:47:56;;;;;;;14.80;4.25;;;;;;;-141.50;100.00;63355.56;5086865;28;20245;-78
2024/02/02 04:50:25;;;;;;;19.35;4.72;;;;;;;-141.50;100.00;63355.56;5088470;28;20540;-77
2024/02/02 04:52:52;;;;;;;20.05;4.57;;;;;;;-141.50;100.00;63355.56;5089320;28;20459;-78
2024/02/02 04:55:19;;;;;;;20.23;4.47;;;;;;;-141.50;100.00;63355.56;5089241;28;20086;-78
2024/02/02 04:57:45;;;;;;;17.05;4.43;;;;;;;-141.50;100.00;63355.56;5108997;28;20061;-78
2024/02/02 05:00:13;;;;;;;19.95;4.22;;;;;;;-141.50;100.00;63355.56;5107774;28;20472;-80
2024/02/02 05:02:40;;;;;;;17.30;4.00;;;;;;;-141.50;100.00;63355.56;5106004;28;20143;-79
2024/02/02 05:05:07;;;;;;;18.27;4.10;;;;;;;-141.50;100.00;63355.56;5107429;28;20416;-79
2024/02/02 05:07:36;;;;;;;13.27;3.78;;;;;;;-141.50;100.00;63355.56;5089448;28;20696;-78
2024/02/02 05:10:07;;;;;;;24.15;5.05;;;;;;;-141.50;100.00;63355.56;5076710;28;20498;-76
2024/02/02 05:12:34;;;;;;;27.27;4.80;;;;;;;-141.50;100.00;63355.56;5101753;28;20043;-77
2024/02/02 05:15:01;;;;;;;14.07;3.78;;;;;;;-141.50;100.00;63355.56;5081882;28;20671;-78
2024/02/02 05:17:28;;;;;;;17.48;4.60;;;;;;;-141.50;100.00;63355.56;5089065;28;20095;-80
2024/02/02 05:19:55;;;;;;;22.58;5.10;;;;;;;-141.50;100.00;63355.56;5111997;28;20113;-80
2024/02/02 05:22:22;;;;;;;21.95;5.07;;;;;;;-141.50;100.00;63355.56;5084951;28;20087;-79
2024/02/02 05:24:49;;;;;;;27.13;5.60;;;;;;;-141.50;100.00;63355.56;5078015;28;20050;-78
2024/02/02 05:27:16;;;;;;;19.17;4.97;;;;;;;-141.50;100.00;63355.56;5081507;28;20518;-78
2024/02/02 05:29:44;;;;;;;20.02;4.65;;;;;;;-141.50;100.00;63355.56;5091716;28;20123;-82
2024/02/02 05:32:11;;;;;;;13.52;4.50;;;;;;;-141.50;100.00;63355.56;5085101;28;20044;-82
2024/02/02 05:34:38;;;;;;;19.92;5.07;;;;;;;-141.50;100.00;63355.56;5108204;28;20055;-81
2024/02/02 05:37:04;;;;;;;31.35;5.38;;;;;;;-141.50;100.00;63355.56;5090574;28;20059;-82
2024/02/02 05:39:31;;;;;;;19.55;4.82;;;;;;;-141.50;100.00;63355.56;5094176;28;20035;-80
2024/02/02 05:41:58;;;;;;;29.73;5.40;;;;;;;-141.50;100.00;63355.56;5078394;28;20083;-80
2024/02/02 05:44:25;;;;;;;16.80;4.85;;;;;;;-141.50;100.00;63355.56;5088149;28;20063;-80
2024/02/02 05:46:51;;;;;;;17.90;4.85;;;;;;;-141.50;100.00;63355.56;5097339;28;20047;-78
2024/02/02 05:49:18;;;;;;;15.80;4.88;;;;;;;-141.50;100.00;63355.56;5109571;28;20092;-78
2024/02/02 05:51:45;;;;;;;23.33;4.45;;;;;;;-141.50;100.00;63355.56;5099465;28;20122;-79
2024/02/02 05:54:12;;;;;;;21.58;4.88;;;;;;;-141.50;100.00;63355.56;5105457;28;20066;-80
2024/02/02 05:56:39;;;;;;;19.58;4.53;;;;;;;-141.50;100.00;63355.56;5104196;28;20064;-78
2024/02/02 05:59:06;;;;;;;18.17;4.57;;;;;;;-141.50;100.00;63355.56;5093614;28;20195;-79
2024/02/02 06:01:32;;;;;;;25.27;5.15;;;;;;;-141.50;100.00;63355.56;5102210;28;20039;-80
2024/02/02 06:03:59;;;;;;;21.02;4.40;;;;;;;-141.50;100.00;63355.56;5106303;28;20051;-79
2024/02/02 06:06:26;;;;;;;15.20;4.82;;;;;;;-141.50;100.00;63355.56;5088616;28;20059;-79
2024/02/02 06:08:53;;;;;;;19.50;4.53;;;;;;;-141.50;100.00;63355.56;5105006;28;20442;-79
2024/02/02 06:11:26;;;;;;;21.83;5.30;;;;;;;-141.50;100.00;63355.56;5114477;28;20043;-76
2024/02/02 06:13:55;;;;;;;23.75;4.82;;;;;;;-141.50;100.00;63355.56;5087961;28;20063;-78
2024/02/02 06:16:23;;;;;;;17.10;5.68;;;;;;;-141.50;100.00;63355.56;5104416;28;20655;-75
2024/02/02 06:18:49;;;;;;;18.38;5.25;;;;;;;-141.50;100.00;63355.56;5088108;28;20059;-78
2024/02/02 06:21:17;;;;;;;20.10;5.53;;;;;;;-141.50;100.00;63355.56;5085009;28;20062;-78
2024/02/02 06:23:43;;;;;;;18.33;5.35;;;;;;;-141.50;100.00;63355.56;5087459;28;20090;-77
2024/02/02 06:26:10;;;;;;;22.58;5.68;;;;;;;-141.50;100.00;63355.56;5107005;28;20055;-78
2024/02/02 06:28:37;;;;;;;21.02;5.05;;;;;;;-141.50;100.00;63355.56;5087501;28;20059;-78
2024/02/02 06:31:04;;;;;;;24.58;4.90;;;;;;;-141.50;100.00;63355.56;5106737;28;20059;-77
2024/02/02 06:33:31;;;;;;;23.13;5.93;;;;;;;-141.50;100.00;63355.56;5106095;28;20215;-80
2024/02/02 06:35:58;;;;;;;18.17;5.40;;;;;;;-141.50;100.00;63355.56;5106299;28;20398;-79
2024/02/02 06:38:25;;;;;;;20.48;5.60;;;;;;;-141.50;100.00;63355.56;5087221;28;20047;-80
2024/02/02 06:40:51;;;;;;;17.88;5.10;;;;;;;-141.50;100.00;63355.56;5088744;28;20066;-80
2024/02/02 06:43:18;;;;;;;25.42;6.07;;;;;;;-141.50;100.00;63355.56;5100497;28;20394;-78
2024/02/02 06:45:45;;;;;;;21.42;4.93;;;;;;;-141.50;100.00;63355.56;5106997;28;20052;-78
2024/02/02 06:48:15;;;;;;;22.52;5.90;;;;;;;-141.50;100.00;63355.56;5105889;28;20487;-80
2024/02/02 06:50:44;;;;;;;22.70;5.25;;;;;;;-141.50;100.00;63355.56;5089902;28;20052;-79
2024/02/02 06:53:11;;;;;;;15.95;5.85;;;;;;;-141.50;100.00;63355.56;5103472;28;20052;-80
2024/02/02 06:55:38;;;;;;;29.35;5.78;;;;;;;-141.50;100.00;63355.56;5110355;28;20087;-79
2024/02/02 06:58:24;;;;;;;15.55;5.28;;;;;;;-141.50;100.00;63355.56;5105967;28;20487;-79
2024/02/02 07:00:51;;;;;;;19.27;5.88;;;;;;;-141.50;100.00;63355.56;5101725;27;20140;-78
2024/02/02 07:03:18;;;;;;;21.08;5.95;;;;;;;-141.50;100.00;63355.56;5070973;28;20079;-79
2024/02/02 07:05:46;;;;;;;16.88;5.85;;;;;;;-141.50;100.00;63355.56;5082150;28;20432;-78
2024/02/02 07:08:12;;;;;;;20.55;5.85;;;;;;;-141.50;100.00;63355.56;5083169;28;20060;-78
2024/02/02 07:10:39;;;;;;;22.70;5.32;;;;;;;-141.50;100.00;63355.56;5103525;28;20535;-78
2024/02/02 07:13:08;;;;;;;19.80;5.57;;;;;;;-141.50;100.00;63355.56;5098140;28;20071;-78
2024/02/02 07:15:41;;;;;;;21.58;5.50;;;;;;;-141.50;100.00;63355.56;5083689;28;20050;-78
2024/02/02 07:18:36;;;;;;;18.63;5.75;;;;;;;-141.50;100.00;63355.56;5058892;28;20061;-77
2024/02/02 07:21:06;;;;;;;22.75;5.90;;;;;;;-141.50;100.00;63355.56;5083160;28;20087;-78
2024/02/02 07:23:36;;;;;;;14.55;5.25;;;;;;;-141.50;100.00;63355.56;5081131;28;20043;-78
2024/02/02 07:26:04;;;;;;;19.23;5.28;;;;;;;-141.50;100.00;63355.56;5101515;28;20056;-79
2024/02/02 07:28:31;;;;;;;22.88;5.65;;;;;;;-141.50;100.00;63355.56;5099159;28;20047;-80
2024/02/02 07:30:59;;;;;;;22.80;5.40;;;;;;;-141.50;100.00;63355.56;5081160;28;20051;-80
2024/02/02 07:33:37;;;;;;;23.77;5.82;;;;;;;-141.50;100.00;63355.56;5109734;28;20120;-78
2024/02/02 07:36:09;;;;;;;20.27;5.80;;;;;;;-141.50;100.00;63355.56;5102310;28;20139;-76
2024/02/02 07:38:43;;;;;;;23.25;6.00;;;;;;;-141.50;100.00;63355.56;5108335;28;20407;-78
2024/02/02 07:41:12;;;;;;;21.58;5.53;;;;;;;-141.50;100.00;63355.56;5092067;28;20214;-78
2024/02/02 07:43:39;;;;;;;23.35;5.63;;;;;;;-141.50;100.00;63355.56;5068072;27;20043;-79
2024/02/02 07:46:09;;;;;;;20.38;5.32;;;;;;;-141.50;100.00;63355.56;5107568;27;20056;-77
2024/02/02 07:48:40;;;;;;;24.85;5.75;;;;;;;-141.50;100.00;63355.56;5106471;28;20054;-79
2024/02/02 07:51:08;;;;;;;20.10;5.68;;;;;;;-141.50;100.00;63355.56;5083588;28;20265;-77
2024/02/02 07:53:35;;;;;;;16.90;5.40;;;;;;;-141.50;100.00;63355.56;5104051;28;20047;-78
2024/02/02 07:56:02;;;;;;;23.90;5.50;;;;;;;-141.50;100.00;63355.56;5100604;28;20557;-78
2024/02/02 07:58:30;;;;;;;13.23;5.10;;;;;;;-141.50;100.00;63355.56;5104261;28;20082;-78
2024/02/02 08:00:57;;;;;;;20.70;4.95;;;;;;;-141.50;100.00;63355.56;5082078;28;20120;-79
2024/02/02 08:03:24;;;;;;;15.57;4.82;;;;;;;-141.50;100.00;63355.56;5087981;28;20048;-77
2024/02/02 08:05:51;;;;;;;17.15;4.90;;;;;;;-141.50;100.00;63355.56;5066932;28;20051;-78
2024/02/02 08:08:18;;;;;;;24.42;5.57;;;;;;;-141.50;100.00;63355.56;5106853;28;20060;-78
2024/02/02 08:10:46;;;;;;;20.15;5.22;;;;;;;-141.50;100.00;63355.56;5099086;28;20056;-77
2024/02/02 08:13:14;;;;;;;15.32;4.80;;;;;;;-141.50;100.00;63355.56;5088223;28;20060;-78
2024/02/02 08:15:41;;;;;;;29.00;5.82;;;;;;;-141.50;100.00;63355.56;5081755;28;20078;-77
2024/02/02 08:18:09;;;;;;;18.58;4.95;;;;;;;-141.50;100.00;63355.56;5099740;28;20056;-78
2024/02/02 08:20:37;;;;;;;18.85;5.05;;;;;;;-141.50;100.00;63355.56;5104472;28;20394;-79
2024/02/02 08:23:04;;;;;;;22.98;4.80;;;;;;;-141.50;100.00;63355.56;5064294;28;20054;-78
2024/02/02 08:25:31;;;;;;;20.85;5.65;;;;;;;-141.50;100.00;63355.56;5103115;28;20086;-78
2024/02/02 08:28:01;;;;;;;17.27;4.47;;;;;;;-141.50;100.00;63355.56;5077828;28;20078;-79
2024/02/02 08:30:28;;;;;;;20.08;4.45;;;;;;;-141.50;100.00;63355.56;5084828;28;20138;-79
2024/02/02 08:32:55;;;;;;;22.67;4.70;;;;;;;-141.50;100.00;63355.56;5081562;28;20074;-78
2024/02/02 08:35:24;;;;;;;20.00;5.45;;;;;;;-141.50;100.00;63355.56;5100340;28;20060;-78
2024/02/02 08:37:55;;;;;;;21.02;4.88;;;;;;;-141.50;100.00;63355.56;5078311;28;20051;-77
2024/02/02 08:40:43;;;;;;;18.15;4.97;;;;;;;-141.50;100.00;63355.56;5098764;28;20066;-79
2024/02/02 08:43:22;;;;;;;16.30;5.15;;;;;;;-141.50;100.00;63355.56;5098708;28;20409;-77
2024/02/02 08:46:10;;;;;;;19.38;5.25;;;;;;;-141.50;100.00;63355.56;5100094;28;20048;-77
2024/02/02 08:48:45;;;;;;;19.98;4.85;;;;;;;-141.50;100.00;63355.56;5061194;28;20127;-77
2024/02/02 08:51:21;;;;;;;19.85;4.78;;;;;;;-141.50;100.00;63355.56;5095924;28;20056;-77
2024/02/02 08:53:54;;;;;;;14.77;4.88;;;;;;;-141.50;100.00;63355.56;5066394;28;20057;-80
2024/02/02 08:56:20;;;;;;;17.55;5.18;;;;;;;-141.50;100.00;63355.56;5054537;28;20071;-78
2024/02/02 08:58:47;;;;;;;18.35;5.32;;;;;;;-141.50;100.00;63355.56;5082797;28;20070;-78
2024/02/02 09:01:36;;;;;;;20.58;5.40;;;;;;;-141.50;100.00;63355.56;5098522;28;20039;-78
2024/02/02 09:04:04;;;;;;;17.13;4.90;;;;;;;-141.50;100.00;63355.56;5100395;28;20108;-80
2024/02/02 09:06:43;;;;;;;20.13;4.68;;;;;;;-141.50;100.00;63355.56;5087374;28;20510;-78
2024/02/02 09:09:14;;;;;;;15.27;4.50;;;;;;;-141.50;100.00;63355.56;5092350;28;20136;-76
2024/02/02 09:11:47;;;;;;;19.58;4.60;;;;;;;-141.50;100.00;63355.56;5080314;28;20563;-78
2024/02/02 09:14:17;;;;;;;15.23;4.68;;;;;;;-141.50;100.00;63355.56;5096968;28;20059;-77
2024/02/02 09:16:54;;;;;;;17.73;4.35;;;;;;;-141.50;100.00;63355.56;5080919;28;20497;-77
2024/02/02 09:19:26;;;;;;;14.20;4.45;;;;;;;-141.50;100.00;63355.56;5085923;28;20064;-79
2024/02/02 09:21:56;;;;;;;17.35;4.63;;;;;;;-141.50;100.00;63355.56;5098834;28;20620;-78
2024/02/02 09:24:37;;;;;;;23.17;4.72;;;;;;;-141.50;100.00;63355.56;5072102;28;20947;-77
2024/02/02 09:27:07;;;;;;;25.08;4.85;;;;;;;-141.50;100.00;63355.56;5079305;28;20426;-78
2024/02/02 09:29:48;;;;;;;19.92;4.80;;;;;;;-141.50;100.00;63355.56;5082959;28;20415;-79
2024/02/02 09:32:16;;;;;;;19.58;4.75;;;;;;;-141.50;100.00;63355.56;5076456;28;20052;-79
2024/02/02 09:34:43;;;;;;;19.50;3.47;;;;;;;-141.50;100.00;63355.56;5081174;28;20055;-78
2024/02/02 09:37:48;;;;;;;19.50;4.30;;;;;;;-141.50;100.00;63355.56;5075782;28;20079;-79
2024/02/02 09:40:34;;;;;;;10.32;2.92;;;;;;;-141.50;100.00;63355.56;5065505;28;20518;-78
2024/02/02 09:43:23;;;;;;;14.07;3.50;;;;;;;-141.50;100.00;63355.56;5080876;28;20052;-77
2024/02/02 09:46:20;;;;;;;11.20;3.70;;;;;;;-141.50;100.00;63355.56;5095469;28;20054;-76
2024/02/02 09:49:08;;;;;;;12.73;4.03;;;;;;;-141.50;100.00;63355.56;5095169;28;20056;-78
2024/02/02 09:51:38;;;;;;;8.50;2.78;;;;;;;-141.50;100.00;63355.56;5096529;28;20039;-78
2024/02/02 09:54:17;;;;;;;14.82;3.97;;;;;;;-141.50;100.00;63355.56;5079898;28;20506;-78
2024/02/02 09:57:13;;;;;;;12.15;3.25;;;;;;;-141.50;100.00;63355.56;5079346;28;20060;-78
2024/02/02 09:59:55;;;;;;;8.48;2.70;;;;;;;-141.50;100.00;63355.56;5080602;28;20296;-78
2024/02/02 10:02:28;;;;;;;12.10;2.90;;;;;;;-141.50;100.00;63355.56;5094034;28;20171;-78
2024/02/02 10:05:31;;;;;;;11.40;3.08;;;;;;;-141.50;100.00;63355.56;5069466;28;20077;-77
2024/02/02 10:07:58;;;;;;;17.23;3.40;;;;;;;-141.50;100.00;63355.56;5068215;28;20139;-78
2024/02/02 10:10:43;;;;;;;8.82;3.40;;;;;;;-141.50;100.00;63355.56;5086691;28;20410;-79
2024/02/02 10:13:20;;;;;;;13.20;3.83;;;;;;;-141.50;100.00;63355.56;5099806;28;20345;-80
2024/02/02 10:16:10;;;;;;;16.75;3.97;;;;;;;-141.50;100.00;63355.56;5102586;28;20047;-78
2024/02/02 10:18:48;;;;;;;10.93;3.72;;;;;;;-141.50;100.00;63355.56;5088511;28;20422;-77
2024/02/02 10:21:25;;;;;;;13.65;3.47;;;;;;;-141.50;100.00;63355.56;5090905;28;20063;-77
2024/02/02 10:24:23;;;;;;;15.55;4.13;;;;;;;-141.50;100.00;63355.56;5102959;28;20043;-77
2024/02/02 10:26:59;;;;;;;17.77;4.32;;;;;;;-141.50;100.00;63355.56;5077773;28;20052;-77
2024/02/02 10:29:39;;;;;;;7.68;3.30;;;;;;;-141.50;100.00;63355.56;5079510;28;20047;-77
2024/02/02 10:32:40;;;;;;;11.25;3.35;;;;;;;-141.50;100.00;63355.56;5100221;28;20077;-78
2024/02/02 10:35:33;;;;;;;11.13;3.20;;;;;;;-141.50;100.00;63355.56;5083582;28;20058;-77
2024/02/02 10:38:27;;;;;;;12.07;3.00;;;;;;;-141.50;100.00;63355.56;5046540;28;20048;-76
2024/02/02 10:41:31;;;;;;;11.07;3.67;;;;;;;-141.50;100.00;63355.56;5081023;28;20183;-76
2024/02/02 10:44:09;;;;;;;11.57;3.40;;;;;;;-141.50;100.00;63355.56;5064703;28;20281;-76
2024/02/02 10:46:37;;;;;;;13.98;3.10;;;;;;;-141.50;100.00;63355.56;5062465;28;20044;-76
2024/02/02 10:49:10;;;;;;;11.60;3.30;;;;;;;-141.50;100.00;63355.56;5096838;28;20465;-76
2024/02/02 10:51:48;;;;;;;14.30;4.00;;;;;;;-141.50;100.00;63355.56;5070984;28;20051;-78
2024/02/02 10:54:28;;;;;;;16.20;3.53;;;;;;;-141.50;100.00;63355.56;5095190;28;20055;-78
2024/02/02 10:57:18;;;;;;;16.05;3.85;;;;;;;-141.50;100.00;63355.56;5096755;28;20539;-77
2024/02/02 11:00:08;;;;;;;10.65;3.15;;;;;;;-141.50;100.00;63355.56;5100299;28;20043;-80
2024/02/02 11:03:05;;;;;;;12.48;3.40;;;;;;;-141.50;100.00;63355.56;5094611;28;20078;-78
2024/02/02 11:05:35;;;;;;;18.13;3.40;;;;;;;-141.50;100.00;63355.56;5085980;28;20063;-77
2024/02/02 11:08:07;;;;;;;13.93;3.42;;;;;;;-141.50;100.00;63355.56;5087075;28;20062;-76
2024/02/02 11:10:58;;;;;;;14.38;3.30;;;;;;;-141.50;100.00;63355.56;5081808;28;20116;-79
2024/02/02 11:13:44;;;;;;;12.93;2.55;;;;;;;-141.50;100.00;63355.56;5099509;28;20052;-79
2024/02/02 11:16:30;;;;;;;8.73;2.63;;;;;;;-141.50;100.00;63355.56;5083723;28;20143;-78